Time;durP1;ratioP1;P1;durP2;ratioP2;P2;SDS_P1;SDS_P2;PMS_P1;PMS_P2;Temp;Humidity;BMP_temperature;BMP_pressure;BME280_temperature;BME280_humidity;BME280_pressure;Samples;Min_cycle;Max_cycle;Signal;HPM_P1;HPM_P2
2022/04/21 00:00:43;;;;;;;0.00;0.00;;;9.60;99.90;;;;;;5112692;28;20476;-73
2022/04/21 00:03:09;;;;;;;0.00;0.00;;;9.60;99.90;;;;;;5120034;28;20027;-71
2022/04/21 00:05:35;;;;;;;0.00;0.00;;;9.50;99.90;;;;;;5121277;28;20043;-71
2022/04/21 00:08:02;;;;;;;0.00;0.00;;;9.60;99.90;;;;;;5122239;28;20083;-71
2022/04/21 00:10:28;;;;;;;0.00;0.00;;;9.60;99.90;;;;;;5118864;28;20174;-72
2022/04/21 00:12:54;;;;;;;0.00;0.00;;;9.60;99.90;;;;;;5121057;28;20027;-72
2022/04/21 00:15:21;;;;;;;0.00;0.00;;;9.60;99.90;;;;;;5118210;28;20054;-72
2022/04/21 00:17:47;;;;;;;0.00;0.00;;;9.60;99.90;;;;;;5115154;28;20508;-73
2022/04/21 00:20:13;;;;;;;0.00;0.00;;;9.50;99.90;;;;;;5116922;28;20377;-73
2022/04/21 00:25:26;;;;;;;0.00;0.00;;;9.40;99.90;;;;;;5112591;28;20039;-72
2022/04/21 00:27:53;;;;;;;0.00;0.00;;;9.50;99.90;;;;;;5109506;28;20031;-71
2022/04/21 00:30:18;;;;;;;;;;;9.30;99.90;;;;;;5121020;28;20060;-71
2022/04/21 00:32:45;;;;;;;0.00;0.00;;;9.30;99.90;;;;;;5111834;27;19915;-71
2022/04/21 00:35:13;;;;;;;0.00;0.00;;;9.20;99.90;;;;;;5105178;28;20119;-73
2022/04/21 00:37:58;;;;;;;0.00;0.00;;;9.20;99.90;;;;;;5088656;28;20114;-71
2022/04/21 00:40:27;;;;;;;0.00;0.00;;;9.20;99.90;;;;;;5102049;28;20366;-73
2022/04/21 00:42:54;;;;;;;0.00;0.00;;;9.10;99.90;;;;;;5098362;28;20030;-72
2022/04/21 00:45:20;;;;;;;0.00;0.00;;;9.10;99.90;;;;;;5105750;28;20056;-72
2022/04/21 00:47:46;;;;;;;0.00;0.00;;;9.10;99.90;;;;;;5111943;28;20039;-72
2022/04/21 00:50:49;;;;;;;0.00;0.00;;;9.10;99.90;;;;;;5108493;27;20476;-71
2022/04/21 00:53:15;;;;;;;0.00;0.00;;;9.10;99.90;;;;;;5102712;28;21191;-72
2022/04/21 00:55:41;;;;;;;0.00;0.00;;;9.10;99.90;;;;;;5109241;28;20095;-72
2022/04/21 00:58:07;;;;;;;0.00;0.00;;;9.10;99.90;;;;;;5107286;28;20473;-71
2022/04/21 01:00:33;;;;;;;0.00;0.00;;;9.10;99.90;;;;;;5109572;28;20023;-71
2022/04/21 01:03:00;;;;;;;0.00;0.00;;;9.10;99.90;;;;;;5111113;28;20102;-71
2022/04/21 01:05:29;;;;;;;0.00;0.00;;;9.10;99.90;;;;;;5105125;28;20431;-71
2022/04/21 01:07:56;;;;;;;0.00;0.00;;;9.20;99.90;;;;;;5106598;28;21600;-71
2022/04/21 01:10:22;;;;;;;0.00;0.00;;;9.20;99.90;;;;;;5106240;28;20139;-71
2022/04/21 01:12:51;;;;;;;0.00;0.00;;;9.20;99.90;;;;;;5103344;28;20129;-71
2022/04/21 01:15:17;;;;;;;0.00;0.00;;;9.20;99.90;;;;;;5107536;28;20840;-71
2022/04/21 01:17:46;;;;;;;0.00;0.00;;;9.20;99.90;;;;;;5108145;28;20330;-72
2022/04/21 01:20:17;;;;;;;0.00;0.00;;;9.20;99.90;;;;;;5099337;28;20028;-71
2022/04/21 01:22:43;;;;;;;0.00;0.00;;;9.20;99.90;;;;;;5098357;28;20043;-72
2022/04/21 01:25:10;;;;;;;0.00;0.00;;;9.20;99.90;;;;;;5105852;28;20034;-71
2022/04/21 01:27:37;;;;;;;0.00;0.00;;;9.20;99.90;;;;;;5088108;28;20067;-72
2022/04/21 01:30:07;;;;;;;0.00;0.00;;;9.20;99.90;;;;;;5109238;28;20027;-71
2022/04/21 01:32:44;;;;;;;0.00;0.00;;;9.30;99.90;;;;;;5099784;28;20044;-72
2022/04/21 01:35:11;;;;;;;0.00;0.00;;;9.20;99.90;;;;;;5102800;28;20020;-72
2022/04/21 01:43:06;;;;;;;0.00;0.00;;;9.20;99.90;;;;;;5107120;28;20078;-72
2022/04/21 01:45:34;;;;;;;0.00;0.00;;;9.20;99.90;;;;;;5104020;28;20583;-71
2022/04/21 01:48:00;;;;;;;0.00;0.00;;;9.10;99.90;;;;;;5097428;28;20554;-72
2022/04/21 01:50:27;;;;;;;0.00;0.00;;;9.20;99.90;;;;;;5107089;28;20020;-73
2022/04/21 01:52:52;;;;;;;0.00;0.00;;;9.20;99.90;;;;;;5102125;28;20058;-72
2022/04/21 01:55:21;;;;;;;0.00;0.00;;;9.20;99.90;;;;;;5105299;28;20051;-72
2022/04/21 01:57:47;;;;;;;0.00;0.00;;;9.20;99.90;;;;;;5099034;28;20024;-74
2022/04/21 02:00:14;;;;;;;0.00;0.00;;;9.30;99.90;;;;;;5103245;28;20054;-74
2022/04/21 02:02:40;;;;;;;0.00;0.00;;;9.30;99.90;;;;;;5105142;28;20505;-72
2022/04/21 02:05:06;;;;;;;0.00;0.00;;;9.40;99.90;;;;;;5108716;28;20027;-72
2022/04/21 02:07:32;;;;;;;0.00;0.00;;;9.40;99.90;;;;;;5103183;28;20040;-71
2022/04/21 02:09:57;;;;;;;0.00;0.00;;;9.50;99.90;;;;;;5105894;28;20083;-72
2022/04/21 02:12:24;;;;;;;0.00;0.00;;;9.40;99.90;;;;;;5098265;28;20028;-72
2022/04/21 02:14:51;;;;;;;0.00;0.00;;;9.30;99.90;;;;;;5112111;28;20023;-72
2022/04/21 02:17:18;;;;;;;0.00;0.00;;;9.30;99.90;;;;;;5108343;28;20047;-72
2022/04/21 02:19:44;;;;;;;0.00;0.00;;;9.40;99.90;;;;;;5092232;28;20028;-72
2022/04/21 02:22:09;;;;;;;0.00;0.00;;;9.40;99.90;;;;;;5101524;28;20382;-72
2022/04/21 02:24:35;;;;;;;0.00;0.00;;;9.40;99.90;;;;;;5104903;28;20165;-73
2022/04/21 02:27:01;;;;;;;0.00;0.00;;;9.20;99.90;;;;;;5100256;28;20479;-71
2022/04/21 02:29:26;;;;;;;0.00;0.00;;;9.20;99.90;;;;;;5110894;28;20040;-71
2022/04/21 02:31:52;;;;;;;0.00;0.00;;;9.10;99.90;;;;;;5097147;28;20498;-72
2022/04/21 02:34:18;;;;;;;0.00;0.00;;;9.10;99.90;;;;;;5104917;28;20027;-72
2022/04/21 02:36:43;;;;;;;0.00;0.00;;;9.10;99.90;;;;;;5101189;28;20110;-72
2022/04/21 02:39:09;;;;;;;0.00;0.00;;;9.10;99.90;;;;;;5108586;28;20097;-73
2022/04/21 02:41:35;;;;;;;0.00;0.00;;;9.10;99.90;;;;;;5099965;28;20020;-72
2022/04/21 02:44:01;;;;;;;0.00;0.00;;;9.20;99.90;;;;;;5102459;28;20445;-72
2022/04/21 02:46:32;;;;;;;0.00;0.00;;;9.20;99.90;;;;;;5104960;28;20541;-72
2022/04/21 02:49:01;;;;;;;0.00;0.00;;;9.20;99.90;;;;;;5110062;28;20028;-72
2022/04/21 02:51:30;;;;;;;0.00;0.00;;;9.10;99.90;;;;;;5109259;28;20047;-72
2022/04/21 02:59:25;;;;;;;0.00;0.00;;;9.30;99.90;;;;;;5103305;28;20145;-73
2022/04/21 03:01:51;;;;;;;0.00;0.00;;;9.20;99.90;;;;;;5098821;28;20473;-72
2022/04/21 03:04:16;;;;;;;0.00;0.00;;;9.00;99.90;;;;;;5095227;28;20044;-72
2022/04/21 03:06:42;;;;;;;0.00;0.00;;;8.90;99.90;;;;;;5101005;28;20537;-72
2022/04/21 03:09:08;;;;;;;0.00;0.00;;;8.80;99.90;;;;;;5114237;28;20058;-72
2022/04/21 03:11:34;;;;;;;0.00;0.00;;;8.70;99.90;;;;;;5099887;28;20065;-71
2022/04/21 03:14:00;;;;;;;0.00;0.00;;;8.60;99.90;;;;;;5108764;28;20529;-71
2022/04/21 03:16:25;;;;;;;0.00;0.00;;;8.50;99.90;;;;;;5103719;28;20089;-71
2022/04/21 03:18:51;;;;;;;0.00;0.00;;;8.50;99.90;;;;;;5113222;28;20103;-71
2022/04/21 03:24:19;;;;;;;0.00;0.00;;;8.40;99.90;;;;;;5111985;28;20037;-71
2022/04/21 03:26:45;;;;;;;0.00;0.00;;;8.50;99.90;;;;;;5106026;28;20027;-72
2022/04/21 03:29:11;;;;;;;0.00;0.00;;;8.40;99.90;;;;;;5111502;28;20116;-71
2022/04/21 03:31:37;;;;;;;0.00;0.00;;;8.30;99.90;;;;;;5102062;28;20504;-71
2022/04/21 03:34:05;;;;;;;0.00;0.00;;;8.30;99.90;;;;;;5103936;28;20040;-72
2022/04/21 03:36:31;;;;;;;0.00;0.00;;;8.20;99.90;;;;;;5107669;28;20504;-71
2022/04/21 03:38:57;;;;;;;0.00;0.00;;;8.10;99.90;;;;;;5107611;28;20020;-71
2022/04/21 03:41:23;;;;;;;0.00;0.00;;;8.10;99.90;;;;;;5112725;28;20115;-72
2022/04/21 03:43:49;;;;;;;0.00;0.00;;;8.00;99.90;;;;;;5103639;28;20097;-72
2022/04/21 03:46:14;;;;;;;0.00;0.00;;;7.90;99.90;;;;;;5093534;28;20115;-71
2022/04/21 03:48:40;;;;;;;0.00;0.00;;;8.00;99.90;;;;;;5096023;28;20024;-72
2022/04/21 03:51:06;;;;;;;0.00;0.00;;;8.00;99.90;;;;;;5097160;28;20170;-71
2022/04/21 03:53:31;;;;;;;0.00;0.00;;;7.90;99.90;;;;;;5105241;28;20027;-71
2022/04/21 03:55:57;;;;;;;0.00;0.00;;;7.80;99.90;;;;;;5110022;28;20519;-72
2022/04/21 03:58:23;;;;;;;0.00;0.00;;;7.70;99.90;;;;;;5092687;28;20078;-72
2022/04/21 04:00:48;;;;;;;0.00;0.00;;;7.70;99.90;;;;;;5106442;28;20111;-72
2022/04/21 04:03:14;;;;;;;0.00;0.00;;;7.70;99.90;;;;;;5095248;28;20088;-72
2022/04/21 04:05:40;;;;;;;0.00;0.00;;;7.70;99.90;;;;;;5098335;28;20110;-72
2022/04/21 04:10:53;;;;;;;0.00;0.00;;;7.60;99.90;;;;;;5101462;28;20077;-72
2022/04/21 04:13:22;;;;;;;0.00;0.00;;;7.50;99.90;;;;;;5095145;28;20043;-71
2022/04/21 04:15:49;;;;;;;0.00;0.00;;;7.50;99.90;;;;;;5108610;28;20045;-72
2022/04/21 04:18:19;;;;;;;0.00;0.00;;;7.50;99.90;;;;;;5099410;28;20032;-73
2022/04/21 04:20:48;;;;;;;0.00;0.00;;;7.40;99.90;;;;;;5092618;28;20020;-72
2022/04/21 04:23:17;;;;;;;0.00;0.00;;;7.50;99.90;;;;;;5099269;28;20032;-72
2022/04/21 04:25:43;;;;;;;0.00;0.00;;;7.50;99.90;;;;;;5100550;28;20096;-71
2022/04/21 04:28:09;;;;;;;0.00;0.00;;;7.50;99.90;;;;;;5104538;28;20497;-71
2022/04/21 04:30:40;;;;;;;0.00;0.00;;;7.50;99.90;;;;;;5100654;28;20039;-73
2022/04/21 04:33:06;;;;;;;0.00;0.00;;;7.50;99.90;;;;;;5111989;28;20047;-72
2022/04/21 04:35:32;;;;;;;0.00;0.00;;;7.50;99.90;;;;;;5100369;28;20407;-73
2022/04/21 04:37:59;;;;;;;0.00;0.00;;;7.50;99.90;;;;;;5104027;27;20174;-71
2022/04/21 04:40:28;;;;;;;0.00;0.00;;;7.50;99.90;;;;;;5106582;28;21042;-71
2022/04/21 04:42:55;;;;;;;0.00;0.00;;;7.40;99.90;;;;;;5106640;28;20031;-71
2022/04/21 04:48:05;;;;;;;0.00;0.00;;;7.40;99.90;;;;;;5110004;28;20430;-72
2022/04/21 04:50:32;;;;;;;0.00;0.00;;;7.40;99.90;;;;;;5104683;28;20016;-71
2022/04/21 04:52:59;;;;;;;0.00;0.00;;;7.40;99.90;;;;;;5103365;28;20028;-72
2022/04/21 04:55:25;;;;;;;0.00;0.00;;;7.40;99.90;;;;;;5101858;28;20020;-71
2022/04/21 04:57:51;;;;;;;0.00;0.00;;;7.40;99.90;;;;;;5104242;28;20112;-72
2022/04/21 05:00:18;;;;;;;0.00;0.00;;;7.40;99.90;;;;;;5097787;28;20024;-73
2022/04/21 05:02:44;;;;;;;0.00;0.00;;;7.40;99.90;;;;;;5107366;28;20028;-72
2022/04/21 05:05:13;;;;;;;0.00;0.00;;;7.40;99.90;;;;;;5102531;28;20022;-71
2022/04/21 05:07:42;;;;;;;0.00;0.00;;;7.40;99.90;;;;;;5095497;28;20389;-72
2022/04/21 05:10:08;;;;;;;0.00;0.00;;;7.30;99.90;;;;;;5095597;28;20048;-72
2022/04/21 05:12:35;;;;;;;0.00;0.00;;;7.30;99.90;;;;;;5097915;28;20040;-72
2022/04/21 05:15:00;;;;;;;0.00;0.00;;;7.30;99.90;;;;;;5100906;28;20024;-71
2022/04/21 05:17:27;;;;;;;0.00;0.00;;;7.40;99.90;;;;;;5106076;28;20099;-71
2022/04/21 05:19:53;;;;;;;0.00;0.00;;;7.30;99.90;;;;;;5097803;28;20032;-73
2022/04/21 05:22:26;;;;;;;0.00;0.00;;;7.40;99.90;;;;;;5098707;28;20508;-71
2022/04/21 05:24:53;;;;;;;0.00;0.00;;;7.40;99.90;;;;;;5095986;28;20154;-72
2022/04/21 05:27:19;;;;;;;0.00;0.00;;;7.50;99.90;;;;;;5106223;28;20023;-71
2022/04/21 05:32:40;;;;;;;0.00;0.00;;;7.50;99.90;;;;;;5106157;28;20455;-72
2022/04/21 05:35:07;;;;;;;0.00;0.00;;;7.50;99.90;;;;;;5109701;28;20008;-71
2022/04/21 05:37:35;;;;;;;0.00;0.00;;;7.50;99.90;;;;;;5110354;28;20023;-73
2022/04/21 05:40:02;;;;;;;0.00;0.00;;;7.50;99.90;;;;;;5105337;28;20484;-72
2022/04/21 05:42:38;;;;;;;0.00;0.00;;;7.50;99.90;;;;;;5110082;28;20047;-72
2022/04/21 05:45:05;;;;;;;0.00;0.00;;;7.40;99.90;;;;;;5099457;28;20026;-71
2022/04/21 05:47:32;;;;;;;0.00;0.00;;;7.50;99.90;;;;;;5106421;28;20074;-71
2022/04/21 05:49:58;;;;;;;0.00;0.00;;;7.50;99.90;;;;;;5101014;28;20023;-71
2022/04/21 05:52:28;;;;;;;0.00;0.00;;;7.50;99.90;;;;;;5098283;28;20058;-71
2022/04/21 05:54:54;;;;;;;0.00;0.00;;;7.50;99.90;;;;;;5107959;27;20032;-72
2022/04/21 05:57:23;;;;;;;0.00;0.00;;;7.50;99.90;;;;;;5111472;28;20024;-72
2022/04/21 05:59:48;;;;;;;0.00;0.00;;;7.60;99.90;;;;;;5102115;28;20031;-72
2022/04/21 06:02:14;;;;;;;0.00;0.00;;;7.60;99.90;;;;;;5113307;28;20026;-72
2022/04/21 06:04:40;;;;;;;0.00;0.00;;;7.60;99.90;;;;;;5095857;28;20032;-72
2022/04/21 06:07:05;;;;;;;0.00;0.00;;;7.60;99.90;;;;;;5093409;28;20358;-72
2022/04/21 06:09:31;;;;;;;0.00;0.00;;;7.70;99.90;;;;;;5103579;28;20052;-72
2022/04/21 06:11:59;;;;;;;0.00;0.00;;;7.70;99.90;;;;;;5105508;28;20032;-72
2022/04/21 06:14:26;;;;;;;0.00;0.00;;;7.70;99.90;;;;;;5106242;28;20081;-72
2022/04/21 06:16:52;;;;;;;0.00;0.00;;;7.80;99.90;;;;;;5099620;28;20031;-72
2022/04/21 06:19:17;;;;;;;0.00;0.00;;;7.80;99.90;;;;;;5106572;28;20036;-71
2022/04/21 06:21:43;;;;;;;0.00;0.00;;;7.80;99.90;;;;;;5106770;28;20027;-71
2022/04/21 06:24:10;;;;;;;0.00;0.00;;;7.80;99.90;;;;;;5104316;28;20020;-72
2022/04/21 06:26:36;;;;;;;0.00;0.00;;;7.90;99.90;;;;;;5097658;28;20031;-75
2022/04/21 06:29:05;;;;;;;0.00;0.00;;;7.90;99.90;;;;;;5106038;28;20102;-74
2022/04/21 06:31:31;;;;;;;0.00;0.00;;;8.00;99.90;;;;;;5108585;28;20511;-75
2022/04/21 06:33:58;;;;;;;0.00;0.00;;;8.00;99.90;;;;;;5111177;28;20020;-75
2022/04/21 06:36:24;;;;;;;0.00;0.00;;;8.10;99.90;;;;;;5101710;28;20106;-76
2022/04/21 06:38:51;;;;;;;0.00;0.00;;;8.20;99.90;;;;;;5111364;28;20044;-76
2022/04/21 06:41:17;;;;;;;0.00;0.00;;;8.30;99.90;;;;;;5115413;28;20034;-76
2022/04/21 06:49:10;;;;;;;0.00;0.00;;;8.60;99.90;;;;;;5105720;28;20143;-71
2022/04/21 06:51:36;;;;;;;0.00;0.00;;;8.70;99.90;;;;;;5106505;27;20027;-73
2022/04/21 06:54:02;;;;;;;0.00;0.00;;;8.80;99.90;;;;;;5109473;28;20476;-75
2022/04/21 06:56:28;;;;;;;0.00;0.00;;;8.70;99.90;;;;;;5112769;28;20034;-74
2022/04/21 06:58:55;;;;;;;0.00;0.00;;;8.70;99.90;;;;;;5114078;28;20095;-74
2022/04/21 07:01:22;;;;;;;0.00;0.00;;;8.70;99.90;;;;;;5117402;28;20031;-73
2022/04/21 07:03:47;;;;;;;0.00;0.00;;;8.80;99.90;;;;;;5116929;28;20023;-75
2022/04/21 07:06:13;;;;;;;0.00;0.00;;;9.00;99.90;;;;;;5107420;28;20020;-75
2022/04/21 07:08:39;;;;;;;0.00;0.00;;;9.00;99.90;;;;;;5100213;28;20050;-75
2022/04/21 07:11:04;;;;;;;0.00;0.00;;;9.10;99.90;;;;;;5101144;28;20050;-74
2022/04/21 07:13:30;;;;;;;0.00;0.00;;;9.10;99.90;;;;;;5106750;28;20039;-74
2022/04/21 07:15:56;;;;;;;0.00;0.00;;;9.30;99.90;;;;;;5103687;28;20473;-76
2022/04/21 07:18:22;;;;;;;0.00;0.00;;;9.40;99.90;;;;;;5102869;28;20031;-74
2022/04/21 07:20:47;;;;;;;0.00;0.00;;;9.40;99.90;;;;;;5109593;28;20026;-74
2022/04/21 07:23:13;;;;;;;0.00;0.00;;;9.50;99.90;;;;;;5107505;28;20039;-73
2022/04/21 07:25:39;;;;;;;0.00;0.00;;;9.60;99.90;;;;;;5109083;28;20028;-77
2022/04/21 07:28:06;;;;;;;0.00;0.00;;;9.60;99.90;;;;;;5100240;28;20095;-75
2022/04/21 07:30:32;;;;;;;0.00;0.00;;;9.50;99.90;;;;;;5105770;28;20031;-74
2022/04/21 07:32:58;;;;;;;;;;;9.50;99.90;;;;;;5110202;28;20023;-74
2022/04/21 07:35:24;;;;;;;0.00;0.00;;;9.40;99.90;;;;;;5106709;28;20049;-75
2022/04/21 07:37:50;;;;;;;0.00;0.00;;;9.40;99.90;;;;;;5099659;28;20077;-74
2022/04/21 07:40:16;;;;;;;0.00;0.00;;;9.50;99.90;;;;;;5100637;28;20020;-74
2022/04/21 07:42:44;;;;;;;0.00;0.00;;;9.50;99.90;;;;;;5095123;28;20588;-74
2022/04/21 07:45:10;;;;;;;0.00;0.00;;;9.60;99.90;;;;;;5097761;28;20390;-75
2022/04/21 07:47:36;;;;;;;0.00;0.00;;;9.80;99.90;;;;;;5117893;28;20063;-74
2022/04/21 07:50:02;;;;;;;0.00;0.00;;;9.80;99.90;;;;;;5122634;28;20067;-75
2022/04/21 07:55:26;;;;;;;0.00;0.00;;;9.80;99.90;;;;;;5118329;28;20046;-73
2022/04/21 07:57:54;;;;;;;0.00;0.00;;;9.90;99.90;;;;;;5113935;28;20032;-77
2022/04/21 08:00:20;;;;;;;0.00;0.00;;;10.10;99.90;;;;;;5102573;28;20462;-74
2022/04/21 08:02:47;;;;;;;0.00;0.00;;;10.20;99.90;;;;;;5111033;28;20024;-75
2022/04/21 08:05:15;;;;;;;0.00;0.00;;;10.40;99.90;;;;;;5106864;28;20041;-75
2022/04/21 08:07:41;;;;;;;0.00;0.00;;;10.50;99.90;;;;;;5109165;28;20036;-76
2022/04/21 08:10:09;;;;;;;0.00;0.00;;;10.50;99.90;;;;;;5111077;28;20043;-76
2022/04/21 08:12:43;;;;;;;0.00;0.00;;;10.50;99.90;;;;;;5084894;28;20035;-75
2022/04/21 08:15:11;;;;;;;0.00;0.00;;;10.70;99.90;;;;;;5104785;28;20046;-75
2022/04/21 08:17:38;;;;;;;0.00;0.00;;;10.70;99.90;;;;;;5119057;28;20028;-72
2022/04/21 08:20:06;;;;;;;0.00;0.00;;;10.70;99.90;;;;;;5128463;28;20036;-73
2022/04/21 08:22:32;;;;;;;0.00;0.00;;;10.80;99.90;;;;;;5125753;28;20024;-72
2022/04/21 08:33:10;;;;;;;0.00;0.00;;;11.20;99.90;;;;;;5112334;28;20489;-72
2022/04/21 08:35:36;;;;;;;0.00;0.00;;;11.20;99.90;;;;;;5115017;28;20032;-75
2022/04/21 08:38:06;;;;;;;0.00;0.00;;;11.30;99.90;;;;;;5125563;27;20028;-73
2022/04/21 08:40:32;;;;;;;0.00;0.00;;;11.40;99.90;;;;;;5128086;28;20088;-74
2022/04/21 08:43:00;;;;;;;;;;;11.40;99.90;;;;;;5126034;28;20050;-74
2022/04/21 08:45:26;;;;;;;;;;;11.50;99.90;;;;;;5125285;28;19908;-74
2022/04/21 08:47:58;;;;;;;0.00;0.00;;;11.50;99.90;;;;;;5121371;28;19912;-74
2022/04/21 08:50:24;;;;;;;0.00;0.00;;;11.60;99.90;;;;;;5129512;28;20016;-73
2022/04/21 08:52:53;;;;;;;0.00;0.00;;;11.70;99.90;;;;;;5129739;28;20050;-73
2022/04/21 08:55:19;;;;;;;0.00;0.00;;;11.80;99.90;;;;;;5127713;28;20020;-74
2022/04/21 08:57:45;;;;;;;0.00;0.00;;;12.00;99.90;;;;;;5129470;28;20114;-73
2022/04/21 09:00:11;;;;;;;0.00;0.00;;;12.20;99.90;;;;;;5133149;28;20026;-72
2022/04/21 09:02:56;;;;;;;0.00;0.00;;;12.30;99.90;;;;;;5125362;28;20021;-73
2022/04/21 09:05:22;;;;;;;0.00;0.00;;;12.30;99.90;;;;;;5131016;28;20008;-73
2022/04/21 09:07:49;;;;;;;0.00;0.00;;;12.30;99.90;;;;;;5136315;28;20024;-74
2022/04/21 09:10:16;;;;;;;0.00;0.00;;;12.30;99.90;;;;;;5133450;28;20088;-74
2022/04/21 09:12:55;;;;;;;0.00;0.00;;;12.40;99.90;;;;;;5137727;27;20023;-73
2022/04/21 09:15:24;;;;;;;0.00;0.00;;;12.50;99.90;;;;;;5131101;28;20039;-72
2022/04/21 09:17:52;;;;;;;0.00;0.00;;;12.50;99.90;;;;;;5116492;27;20020;-73
2022/04/21 09:20:20;;;;;;;0.00;0.00;;;12.60;99.90;;;;;;5113988;28;20031;-73
2022/04/21 09:22:59;;;;;;;0.00;0.00;;;12.70;99.90;;;;;;5124798;28;20124;-73
2022/04/21 09:25:30;;;;;;;0.00;0.00;;;12.80;99.90;;;;;;5116630;28;20020;-73
2022/04/21 09:27:57;;;;;;;0.00;0.00;;;13.00;99.90;;;;;;5113944;28;20043;-73
2022/04/21 09:30:26;;;;;;;0.00;0.00;;;13.20;99.90;;;;;;5113537;28;20457;-73
2022/04/21 09:32:56;;;;;;;0.00;0.00;;;13.40;99.90;;;;;;5107555;28;20478;-72
2022/04/21 09:35:24;;;;;;;0.00;0.00;;;13.50;99.90;;;;;;5109359;28;20023;-72
2022/04/21 09:37:52;;;;;;;0.00;0.00;;;13.60;99.90;;;;;;5108597;28;20019;-73
2022/04/21 09:40:20;;;;;;;0.00;0.00;;;13.80;99.90;;;;;;5093878;28;20020;-73
2022/04/21 09:42:56;;;;;;;0.00;0.00;;;13.80;99.90;;;;;;5102988;28;20023;-73
2022/04/21 09:48:29;;;;;;;0.00;0.00;;;13.60;99.90;;;;;;5105511;28;20191;-73
2022/04/21 09:51:11;;;;;;;0.00;0.00;;;13.70;99.90;;;;;;5101778;28;20032;-73
2022/04/21 09:54:00;;;;;;;0.00;0.00;;;13.80;99.90;;;;;;5097714;28;20035;-73
2022/04/21 09:56:32;;;;;;;0.00;0.00;;;14.10;99.90;;;;;;5092968;28;20431;-72
2022/04/21 09:58:59;;;;;;;0.00;0.00;;;14.20;99.90;;;;;;5103318;28;20027;-72
2022/04/21 10:01:26;;;;;;;0.00;0.00;;;14.30;99.90;;;;;;5100896;28;20020;-73
2022/04/21 10:03:57;;;;;;;;;;;14.30;99.90;;;;;;5105728;28;20063;-75
2022/04/21 10:06:23;;;;;;;0.00;0.00;;;14.30;99.90;;;;;;5106053;28;19943;-74
2022/04/21 10:08:49;;;;;;;0.00;0.00;;;14.50;99.90;;;;;;5103174;28;20412;-73
2022/04/21 10:11:23;;;;;;;0.00;0.00;;;14.60;99.90;;;;;;5097581;28;20057;-73
2022/04/21 10:13:53;;;;;;;0.00;0.00;;;14.60;99.90;;;;;;5106055;28;20032;-73
2022/04/21 10:16:19;;;;;;;0.00;0.00;;;14.50;99.90;;;;;;5099482;28;20062;-72
2022/04/21 10:18:50;;;;;;;0.00;0.00;;;14.70;99.90;;;;;;5106742;28;20020;-73
2022/04/21 10:21:52;;;;;;;0.00;0.00;;;14.80;99.90;;;;;;5100008;28;20110;-73
2022/04/21 10:24:32;;;;;;;0.00;0.00;;;15.00;99.90;;;;;;5098169;28;20051;-72
2022/04/21 10:26:58;;;;;;;0.00;0.00;;;15.10;99.90;;;;;;5097179;28;20505;-75
2022/04/21 10:29:27;;;;;;;0.00;0.00;;;15.10;99.90;;;;;;5094562;28;20031;-74
2022/04/21 10:32:05;;;;;;;0.00;0.00;;;15.10;99.90;;;;;;5115251;28;20050;-74
2022/04/21 10:34:36;;;;;;;0.00;0.00;;;15.10;99.90;;;;;;5123849;28;20019;-73
2022/04/21 10:37:08;;;;;;;0.00;0.00;;;14.90;99.90;;;;;;5107360;28;20127;-72
2022/04/21 10:39:34;;;;;;;0.00;0.00;;;14.90;99.90;;;;;;5111207;28;20024;-73
2022/04/21 10:42:19;;;;;;;0.00;0.00;;;15.10;99.90;;;;;;5109482;28;20126;-73
2022/04/21 10:44:55;;;;;;;0.00;0.00;;;15.60;99.90;;;;;;5099790;28;20610;-73
2022/04/21 10:47:38;;;;;;;0.00;0.00;;;15.70;99.90;;;;;;5105875;28;20019;-73
2022/04/21 10:50:16;;;;;;;0.00;0.00;;;15.70;99.90;;;;;;5095024;28;20043;-74
2022/04/21 10:58:33;;;;;;;;;;;16.10;99.90;;;;;;5077585;28;20329;-73
2022/04/21 11:01:18;;;;;;;0.00;0.00;;;16.20;99.90;;;;;;5101122;28;19908;-75
2022/04/21 11:03:46;;;;;;;0.00;0.00;;;16.30;99.90;;;;;;5113615;28;20031;-73
2022/04/21 11:06:16;;;;;;;0.00;0.00;;;16.10;99.90;;;;;;5107376;28;20430;-74
2022/04/21 11:08:43;;;;;;;0.00;0.00;;;16.20;99.90;;;;;;5109746;28;20032;-72
2022/04/21 11:11:09;;;;;;;0.00;0.00;;;16.30;99.90;;;;;;5101217;28;20094;-74
2022/04/21 11:13:52;;;;;;;0.00;0.00;;;16.40;99.90;;;;;;5097798;28;20032;-75
2022/04/21 11:16:47;;;;;;;0.00;0.00;;;16.60;99.90;;;;;;5111655;28;20024;-73
2022/04/21 11:19:31;;;;;;;0.00;0.00;;;16.80;99.90;;;;;;5110023;28;20099;-73
2022/04/21 11:22:06;;;;;;;0.00;0.00;;;16.80;99.90;;;;;;5116653;28;20047;-74
2022/04/21 11:24:58;;;;;;;0.00;0.00;;;16.90;99.80;;;;;;5108155;28;20024;-73
2022/04/21 11:27:25;;;;;;;0.00;0.00;;;16.90;99.90;;;;;;5102502;28;20039;-73
2022/04/21 11:29:51;;;;;;;0.00;0.00;;;17.00;99.90;;;;;;5117745;28;20091;-76
2022/04/21 11:32:18;;;;;;;0.00;0.00;;;17.10;99.90;;;;;;5119267;28;20383;-70
2022/04/21 11:35:11;;;;;;;0.00;0.00;;;17.00;98.90;;;;;;5108160;28;20036;-70
2022/04/21 11:37:54;;;;;;;0.00;0.00;;;17.10;99.60;;;;;;5106970;28;20024;-70
2022/04/21 11:40:33;;;;;;;0.00;0.00;;;17.20;99.10;;;;;;5109226;28;20032;-72
2022/04/21 11:43:25;;;;;;;0.00;0.00;;;17.20;98.20;;;;;;5118770;28;20027;-73
2022/04/21 11:45:56;;;;;;;0.00;0.00;;;17.30;98.70;;;;;;5118732;28;20039;-72
2022/04/21 11:48:45;;;;;;;0.00;0.00;;;17.40;98.20;;;;;;5116217;28;20031;-73
2022/04/21 11:51:24;;;;;;;0.00;0.00;;;17.60;98.40;;;;;;5121131;28;20032;-72
2022/04/21 11:53:50;;;;;;;0.00;0.00;;;17.60;98.20;;;;;;5100066;28;20032;-72
2022/04/21 11:56:21;;;;;;;0.00;0.00;;;17.50;98.10;;;;;;5114365;28;20121;-73
2022/04/21 11:58:48;;;;;;;0.00;0.00;;;17.50;98.10;;;;;;5107558;28;20118;-71
2022/04/21 12:06:51;;;;;;;0.00;0.00;;;17.50;97.50;;;;;;5112556;28;20104;-72
2022/04/21 12:09:21;;;;;;;0.00;0.00;;;17.40;97.00;;;;;;5105209;28;20078;-72
2022/04/21 12:11:51;;;;;;;0.00;0.00;;;17.50;97.00;;;;;;5109313;28;20050;-72
2022/04/21 12:14:18;;;;;;;0.00;0.00;;;17.40;96.50;;;;;;5115675;28;20051;-72
2022/04/21 12:16:50;;;;;;;0.00;0.00;;;17.50;96.60;;;;;;5104059;28;20028;-72
2022/04/21 12:19:44;;;;;;;0.00;0.00;;;17.70;96.60;;;;;;5110862;28;20478;-73
2022/04/21 12:22:20;;;;;;;0.00;0.00;;;17.90;95.90;;;;;;5121858;28;20099;-72
2022/04/21 12:24:50;;;;;;;0.00;0.00;;;17.60;96.40;;;;;;5114134;28;20117;-73
2022/04/21 12:27:23;;;;;;;0.00;0.00;;;17.60;95.90;;;;;;5119419;28;20031;-73
2022/04/21 12:30:05;;;;;;;0.00;0.00;;;17.60;96.50;;;;;;5101145;28;20034;-72
2022/04/21 12:32:32;;;;;;;0.00;0.00;;;18.00;96.50;;;;;;5110005;28;20036;-73
2022/04/21 12:35:06;;;;;;;0.00;0.00;;;18.20;95.50;;;;;;5114823;28;20112;-73
2022/04/21 12:37:44;;;;;;;0.00;0.00;;;18.50;95.00;;;;;;5109932;28;20028;-72
2022/04/21 12:40:13;;;;;;;0.00;0.00;;;18.60;94.80;;;;;;5125101;28;20016;-72
2022/04/21 12:42:40;;;;;;;0.00;0.00;;;18.80;94.40;;;;;;5116979;28;20016;-72
2022/04/21 12:45:07;;;;;;;0.00;0.00;;;18.80;93.70;;;;;;5135787;28;20039;-73
2022/04/21 12:47:45;;;;;;;0.00;0.00;;;18.80;93.60;;;;;;5135096;28;20032;-72
2022/04/21 12:50:20;;;;;;;0.00;0.00;;;18.80;93.60;;;;;;5133851;28;20096;-72
2022/04/21 12:52:48;;;;;;;0.00;0.00;;;18.80;93.30;;;;;;5125329;28;20837;-73
2022/04/21 12:55:20;;;;;;;0.00;0.00;;;18.90;93.00;;;;;;5127491;28;20020;-72
2022/04/21 12:58:35;;;;;;;0.00;0.00;;;19.00;92.80;;;;;;5124173;28;20031;-72
2022/04/21 13:01:02;;;;;;;0.00;0.00;;;19.10;92.20;;;;;;5098029;28;20033;-73
2022/04/21 13:03:28;;;;;;;0.00;0.00;;;19.10;92.00;;;;;;5119261;28;20091;-73
2022/04/21 13:05:55;;;;;;;;;;;19.20;91.60;;;;;;5116090;28;20011;-71
2022/04/21 13:08:22;;;;;;;0.00;0.00;;;19.30;90.30;;;;;;5102324;28;19916;-72
2022/04/21 13:10:50;;;;;;;0.00;0.00;;;19.40;90.80;;;;;;5102974;28;20063;-71
2022/04/21 13:13:16;;;;;;;0.00;0.00;;;19.50;89.80;;;;;;5098783;28;20035;-71
2022/04/21 13:15:42;;;;;;;;;;;19.40;90.10;;;;;;5112588;28;20028;-71
2022/04/21 13:18:07;;;;;;;0.00;0.00;;;19.50;89.00;;;;;;5106593;28;19935;-72
2022/04/21 13:23:17;;;;;;;0.00;0.00;;;19.60;87.30;;;;;;5118432;28;19919;-71
2022/04/21 13:25:43;;;;;;;;;;;19.60;87.00;;;;;;5103233;28;20020;-71
2022/04/21 13:28:10;;;;;;;0.00;0.00;;;19.50;86.20;;;;;;5100741;28;19919;-72
2022/04/21 13:30:36;;;;;;;0.00;0.00;;;19.60;86.30;;;;;;5094936;28;20103;-71
2022/04/21 13:35:46;;;;;;;0.00;0.00;;;19.80;86.10;;;;;;5098094;28;19915;-71
2022/04/21 13:38:11;;;;;;;;;;;19.70;86.30;;;;;;5102886;28;20027;-71
2022/04/21 13:40:37;;;;;;;0.00;0.00;;;19.60;88.00;;;;;;5113346;28;19903;-72
2022/04/21 13:43:02;;;;;;;;;;;19.50;87.10;;;;;;5102496;28;20050;-71
2022/04/21 13:45:28;;;;;;;0.00;0.00;;;19.60;88.20;;;;;;5105896;28;19994;-72
2022/04/21 13:47:56;;;;;;;;;;;19.50;88.00;;;;;;5098979;28;20249;-71
2022/04/21 13:50:22;;;;;;;0.00;0.00;;;19.40;88.40;;;;;;5094564;28;20365;-71
2022/04/21 13:52:47;;;;;;;;;;;19.20;87.00;;;;;;5117323;28;20042;-72
2022/04/21 13:55:13;;;;;;;0.00;0.00;;;19.20;86.90;;;;;;5111532;28;19919;-71
2022/04/21 13:57:39;;;;;;;0.00;0.00;;;19.40;86.90;;;;;;5110993;28;20019;-73
2022/04/21 14:00:06;;;;;;;0.00;0.00;;;19.40;87.90;;;;;;5107796;28;20039;-75
2022/04/21 14:02:33;;;;;;;0.00;0.00;;;19.70;86.70;;;;;;5108645;28;20054;-74
2022/04/21 14:04:59;;;;;;;0.00;0.00;;;19.80;85.90;;;;;;5097026;28;20754;-73